sensor_id;sensor_type;location;lat;lon;timestamp;temperature;humidity
51863;DHT22;37900;52.996;6.278;2024-03-22T00:00:32;17.50;92.10
51863;DHT22;37900;52.996;6.278;2024-03-22T00:02:58;17.50;92.10
51863;DHT22;37900;52.996;6.278;2024-03-22T00:05:23;17.50;92.10
51863;DHT22;37900;52.996;6.278;2024-03-22T00:07:50;17.50;92.10
51863;DHT22;37900;52.996;6.278;2024-03-22T00:10:16;17.50;92.00
51863;DHT22;37900;52.996;6.278;2024-03-22T00:12:41;17.50;92.00
51863;DHT22;37900;52.996;6.278;2024-03-22T00:15:07;17.50;92.00
51863;DHT22;37900;52.996;6.278;2024-03-22T00:17:32;17.50;92.00
51863;DHT22;37900;52.996;6.278;2024-03-22T00:19:59;17.50;92.00
51863;DHT22;37900;52.996;6.278;2024-03-22T00:22:26;17.50;92.00
51863;DHT22;37900;52.996;6.278;2024-03-22T00:24:57;17.40;91.90
51863;DHT22;37900;52.996;6.278;2024-03-22T00:27:23;17.40;91.90
51863;DHT22;37900;52.996;6.278;2024-03-22T00:29:48;17.50;91.90
51863;DHT22;37900;52.996;6.278;2024-03-22T00:32:14;17.50;91.90
51863;DHT22;37900;52.996;6.278;2024-03-22T00:34:39;17.40;91.80
51863;DHT22;37900;52.996;6.278;2024-03-22T00:37:05;17.40;91.80
51863;DHT22;37900;52.996;6.278;2024-03-22T00:39:30;17.40;91.80
51863;DHT22;37900;52.996;6.278;2024-03-22T00:41:56;17.40;91.80
51863;DHT22;37900;52.996;6.278;2024-03-22T00:44:21;17.40;91.80
51863;DHT22;37900;52.996;6.278;2024-03-22T00:46:47;17.40;91.80
51863;DHT22;37900;52.996;6.278;2024-03-22T00:49:13;17.40;91.70
51863;DHT22;37900;52.996;6.278;2024-03-22T00:51:38;17.40;91.70
51863;DHT22;37900;52.996;6.278;2024-03-22T00:54:04;17.40;91.70
51863;DHT22;37900;52.996;6.278;2024-03-22T00:56:29;17.40;91.70
51863;DHT22;37900;52.996;6.278;2024-03-22T00:58:55;20.80;92.50
51863;DHT22;37900;52.996;6.278;2024-03-22T01:01:20;17.40;91.70
51863;DHT22;37900;52.996;6.278;2024-03-22T01:03:46;17.40;91.70
51863;DHT22;37900;52.996;6.278;2024-03-22T01:06:11;17.40;91.60
51863;DHT22;37900;52.996;6.278;2024-03-22T01:08:37;17.30;91.60
51863;DHT22;37900;52.996;6.278;2024-03-22T01:11:03;17.30;91.60
51863;DHT22;37900;52.996;6.278;2024-03-22T01:13:28;17.30;91.60
51863;DHT22;37900;52.996;6.278;2024-03-22T01:15:54;17.30;91.50
51863;DHT22;37900;52.996;6.278;2024-03-22T01:18:19;17.40;91.60
51863;DHT22;37900;52.996;6.278;2024-03-22T01:20:45;17.40;91.60
51863;DHT22;37900;52.996;6.278;2024-03-22T01:23:11;17.30;91.50
51863;DHT22;37900;52.996;6.278;2024-03-22T01:25:37;17.30;91.50
51863;DHT22;37900;52.996;6.278;2024-03-22T01:28:02;17.30;91.50
51863;DHT22;37900;52.996;6.278;2024-03-22T01:30:29;17.30;91.50
51863;DHT22;37900;52.996;6.278;2024-03-22T01:32:55;17.10;91.40
51863;DHT22;37900;52.996;6.278;2024-03-22T01:35:21;17.30;91.40
51863;DHT22;37900;52.996;6.278;2024-03-22T01:37:46;17.30;91.40
51863;DHT22;37900;52.996;6.278;2024-03-22T01:40:12;17.30;91.40
51863;DHT22;37900;52.996;6.278;2024-03-22T01:42:38;17.30;91.40
51863;DHT22;37900;52.996;6.278;2024-03-22T01:45:04;17.30;91.40
51863;DHT22;37900;52.996;6.278;2024-03-22T01:47:29;17.30;91.40
51863;DHT22;37900;52.996;6.278;2024-03-22T01:49:55;17.30;91.40
51863;DHT22;37900;52.996;6.278;2024-03-22T01:52:21;17.30;91.30
51863;DHT22;37900;52.996;6.278;2024-03-22T01:54:47;17.30;91.40
51863;DHT22;37900;52.996;6.278;2024-03-22T01:57:12;17.30;91.30
51863;DHT22;37900;52.996;6.278;2024-03-22T01:59:38;17.30;91.30
51863;DHT22;37900;52.996;6.278;2024-03-22T02:02:04;17.30;91.30
51863;DHT22;37900;52.996;6.278;2024-03-22T02:04:30;17.30;91.30
51863;DHT22;37900;52.996;6.278;2024-03-22T02:06:55;17.30;91.30
51863;DHT22;37900;52.996;6.278;2024-03-22T02:09:21;17.30;91.30
51863;DHT22;37900;52.996;6.278;2024-03-22T02:11:46;17.20;91.20
51863;DHT22;37900;52.996;6.278;2024-03-22T02:14:12;17.30;91.20
51863;DHT22;37900;52.996;6.278;2024-03-22T02:16:42;17.30;91.20
51863;DHT22;37900;52.996;6.278;2024-03-22T02:19:07;17.20;91.20
51863;DHT22;37900;52.996;6.278;2024-03-22T02:21:34;17.20;91.20
51863;DHT22;37900;52.996;6.278;2024-03-22T02:23:59;17.20;91.40
51863;DHT22;37900;52.996;6.278;2024-03-22T02:26:25;17.20;91.20
51863;DHT22;37900;52.996;6.278;2024-03-22T02:28:50;17.20;91.20
51863;DHT22;37900;52.996;6.278;2024-03-22T02:31:16;17.20;91.10
51863;DHT22;37900;52.996;6.278;2024-03-22T02:33:42;17.20;91.10
51863;DHT22;37900;52.996;6.278;2024-03-22T02:36:08;20.80;92.00
51863;DHT22;37900;52.996;6.278;2024-03-22T02:38:34;17.20;91.10
51863;DHT22;37900;52.996;6.278;2024-03-22T02:40:59;17.20;91.20
51863;DHT22;37900;52.996;6.278;2024-03-22T02:43:25;17.20;91.10
51863;DHT22;37900;52.996;6.278;2024-03-22T02:45:50;17.20;91.10
51863;DHT22;37900;52.996;6.278;2024-03-22T02:48:16;17.20;91.10
51863;DHT22;37900;52.996;6.278;2024-03-22T02:50:41;17.20;91.00
51863;DHT22;37900;52.996;6.278;2024-03-22T02:53:07;17.20;91.00
51863;DHT22;37900;52.996;6.278;2024-03-22T02:55:39;17.20;91.00
51863;DHT22;37900;52.996;6.278;2024-03-22T02:58:08;17.20;91.00
51863;DHT22;37900;52.996;6.278;2024-03-22T03:00:37;17.20;91.00
51863;DHT22;37900;52.996;6.278;2024-03-22T03:03:06;17.20;91.00
51863;DHT22;37900;52.996;6.278;2024-03-22T03:05:32;17.20;91.00
51863;DHT22;37900;52.996;6.278;2024-03-22T03:07:57;17.20;91.00
51863;DHT22;37900;52.996;6.278;2024-03-22T03:10:23;17.20;91.00
51863;DHT22;37900;52.996;6.278;2024-03-22T03:12:49;21.10;91.90
51863;DHT22;37900;52.996;6.278;2024-03-22T03:15:15;17.10;90.90
51863;DHT22;37900;52.996;6.278;2024-03-22T03:17:41;17.20;91.00
51863;DHT22;37900;52.996;6.278;2024-03-22T03:20:06;17.20;91.00
51863;DHT22;37900;52.996;6.278;2024-03-22T03:22:33;17.10;90.90
51863;DHT22;37900;52.996;6.278;2024-03-22T03:24:59;17.20;90.90
51863;DHT22;37900;52.996;6.278;2024-03-22T03:27:25;17.10;90.90
51863;DHT22;37900;52.996;6.278;2024-03-22T03:29:50;17.10;90.90
51863;DHT22;37900;52.996;6.278;2024-03-22T03:32:16;17.10;90.90
51863;DHT22;37900;52.996;6.278;2024-03-22T03:34:42;17.10;90.90
51863;DHT22;37900;52.996;6.278;2024-03-22T03:37:07;17.10;90.90
51863;DHT22;37900;52.996;6.278;2024-03-22T03:39:33;17.10;90.90
51863;DHT22;37900;52.996;6.278;2024-03-22T03:41:58;17.10;90.60
51863;DHT22;37900;52.996;6.278;2024-03-22T03:44:24;17.10;90.80
51863;DHT22;37900;52.996;6.278;2024-03-22T03:46:49;17.10;90.80
51863;DHT22;37900;52.996;6.278;2024-03-22T03:49:15;17.10;90.80
51863;DHT22;37900;52.996;6.278;2024-03-22T03:51:40;17.10;90.80
51863;DHT22;37900;52.996;6.278;2024-03-22T03:54:06;17.10;90.60
51863;DHT22;37900;52.996;6.278;2024-03-22T03:56:32;17.10;90.80
51863;DHT22;37900;52.996;6.278;2024-03-22T03:58:57;17.10;90.80
51863;DHT22;37900;52.996;6.278;2024-03-22T04:01:23;17.10;90.80
51863;DHT22;37900;52.996;6.278;2024-03-22T04:03:49;17.10;90.80
51863;DHT22;37900;52.996;6.278;2024-03-22T04:06:15;17.10;90.80
51863;DHT22;37900;52.996;6.278;2024-03-22T04:08:40;17.10;90.80
51863;DHT22;37900;52.996;6.278;2024-03-22T04:11:06;17.10;90.70
51863;DHT22;37900;52.996;6.278;2024-03-22T04:13:31;17.10;90.80
51863;DHT22;37900;52.996;6.278;2024-03-22T04:15:58;17.00;90.50
51863;DHT22;37900;52.996;6.278;2024-03-22T04:18:24;17.10;90.80
51863;DHT22;37900;52.996;6.278;2024-03-22T04:20:56;17.10;90.70
51863;DHT22;37900;52.996;6.278;2024-03-22T04:23:22;17.00;90.70
51863;DHT22;37900;52.996;6.278;2024-03-22T04:26:06;17.10;90.70
51863;DHT22;37900;52.996;6.278;2024-03-22T04:28:32;17.10;90.70
51863;DHT22;37900;52.996;6.278;2024-03-22T04:30:58;17.10;90.70
51863;DHT22;37900;52.996;6.278;2024-03-22T04:33:24;17.10;90.70
51863;DHT22;37900;52.996;6.278;2024-03-22T04:35:49;17.10;90.60
51863;DHT22;37900;52.996;6.278;2024-03-22T04:38:15;17.10;90.70
51863;DHT22;37900;52.996;6.278;2024-03-22T04:40:41;17.10;90.70
51863;DHT22;37900;52.996;6.278;2024-03-22T04:43:07;17.10;90.60
51863;DHT22;37900;52.996;6.278;2024-03-22T04:45:33;17.10;90.70
51863;DHT22;37900;52.996;6.278;2024-03-22T04:47:58;17.10;90.60
51863;DHT22;37900;52.996;6.278;2024-03-22T04:50:24;17.00;90.60
51863;DHT22;37900;52.996;6.278;2024-03-22T04:52:50;17.00;90.60
51863;DHT22;37900;52.996;6.278;2024-03-22T04:55:15;17.00;90.60
51863;DHT22;37900;52.996;6.278;2024-03-22T04:57:41;17.00;90.60
51863;DHT22;37900;52.996;6.278;2024-03-22T05:00:06;17.00;90.60
51863;DHT22;37900;52.996;6.278;2024-03-22T05:02:34;17.00;90.60
51863;DHT22;37900;52.996;6.278;2024-03-22T05:04:59;17.00;90.60
51863;DHT22;37900;52.996;6.278;2024-03-22T05:07:25;17.00;90.60
51863;DHT22;37900;52.996;6.278;2024-03-22T05:09:51;17.00;90.60
51863;DHT22;37900;52.996;6.278;2024-03-22T05:12:16;17.10;90.60
51863;DHT22;37900;52.996;6.278;2024-03-22T05:14:42;17.00;90.60
51863;DHT22;37900;52.996;6.278;2024-03-22T05:17:07;17.00;90.50
51863;DHT22;37900;52.996;6.278;2024-03-22T05:19:33;17.00;90.50
51863;DHT22;37900;52.996;6.278;2024-03-22T05:21:58;17.00;90.50
51863;DHT22;37900;52.996;6.278;2024-03-22T05:24:25;17.00;90.50
51863;DHT22;37900;52.996;6.278;2024-03-22T05:26:51;17.00;90.50
51863;DHT22;37900;52.996;6.278;2024-03-22T05:29:17;17.00;90.50
51863;DHT22;37900;52.996;6.278;2024-03-22T05:31:46;17.00;90.50
51863;DHT22;37900;52.996;6.278;2024-03-22T05:34:12;17.00;90.50
51863;DHT22;37900;52.996;6.278;2024-03-22T05:36:38;17.00;90.50
51863;DHT22;37900;52.996;6.278;2024-03-22T05:39:03;17.00;90.50
51863;DHT22;37900;52.996;6.278;2024-03-22T05:41:29;17.00;90.50
51863;DHT22;37900;52.996;6.278;2024-03-22T05:43:55;17.00;90.50
51863;DHT22;37900;52.996;6.278;2024-03-22T05:46:20;17.00;90.50
51863;DHT22;37900;52.996;6.278;2024-03-22T05:48:46;17.00;90.50
51863;DHT22;37900;52.996;6.278;2024-03-22T05:51:14;17.00;90.50
51863;DHT22;37900;52.996;6.278;2024-03-22T05:53:39;17.00;90.50
51863;DHT22;37900;52.996;6.278;2024-03-22T05:56:05;17.00;90.50
51863;DHT22;37900;52.996;6.278;2024-03-22T05:58:31;19.50;90.90
51863;DHT22;37900;52.996;6.278;2024-03-22T06:00:56;17.00;90.50
51863;DHT22;37900;52.996;6.278;2024-03-22T06:03:22;17.00;90.40
51863;DHT22;37900;52.996;6.278;2024-03-22T06:05:47;16.90;90.40
51863;DHT22;37900;52.996;6.278;2024-03-22T06:08:14;17.00;90.70
51863;DHT22;37900;52.996;6.278;2024-03-22T06:10:45;17.00;90.40
51863;DHT22;37900;52.996;6.278;2024-03-22T06:13:10;16.90;90.40
51863;DHT22;37900;52.996;6.278;2024-03-22T06:15:36;16.90;90.40
51863;DHT22;37900;52.996;6.278;2024-03-22T06:18:01;17.00;90.40
51863;DHT22;37900;52.996;6.278;2024-03-22T06:20:27;17.00;90.40
51863;DHT22;37900;52.996;6.278;2024-03-22T06:22:52;16.90;90.40
51863;DHT22;37900;52.996;6.278;2024-03-22T06:25:18;16.90;90.40
51863;DHT22;37900;52.996;6.278;2024-03-22T06:27:43;16.90;90.40
51863;DHT22;37900;52.996;6.278;2024-03-22T06:30:09;16.90;90.40
51863;DHT22;37900;52.996;6.278;2024-03-22T06:32:35;16.90;90.40
51863;DHT22;37900;52.996;6.278;2024-03-22T06:35:00;16.90;90.30
51863;DHT22;37900;52.996;6.278;2024-03-22T06:37:26;16.90;90.40
51863;DHT22;37900;52.996;6.278;2024-03-22T06:39:51;16.90;90.30
51863;DHT22;37900;52.996;6.278;2024-03-22T06:42:17;16.90;90.30
51863;DHT22;37900;52.996;6.278;2024-03-22T06:44:43;16.90;90.30
51863;DHT22;37900;52.996;6.278;2024-03-22T06:47:08;16.90;90.30
51863;DHT22;37900;52.996;6.278;2024-03-22T06:49:34;16.90;90.30
51863;DHT22;37900;52.996;6.278;2024-03-22T06:51:59;16.90;90.30
51863;DHT22;37900;52.996;6.278;2024-03-22T06:54:25;16.90;90.30
51863;DHT22;37900;52.996;6.278;2024-03-22T06:56:52;16.90;90.30
51863;DHT22;37900;52.996;6.278;2024-03-22T06:59:17;16.90;90.30
51863;DHT22;37900;52.996;6.278;2024-03-22T07:01:43;16.90;90.30
51863;DHT22;37900;52.996;6.278;2024-03-22T07:04:09;16.90;90.30
51863;DHT22;37900;52.996;6.278;2024-03-22T07:06:34;16.90;90.30
51863;DHT22;37900;52.996;6.278;2024-03-22T07:09:00;16.90;90.30
51863;DHT22;37900;52.996;6.278;2024-03-22T07:11:25;16.90;90.30
51863;DHT22;37900;52.996;6.278;2024-03-22T07:13:51;16.90;90.30
51863;DHT22;37900;52.996;6.278;2024-03-22T07:16:18;16.90;90.30
51863;DHT22;37900;52.996;6.278;2024-03-22T07:18:44;16.90;90.30
51863;DHT22;37900;52.996;6.278;2024-03-22T07:21:10;16.90;90.30
51863;DHT22;37900;52.996;6.278;2024-03-22T07:23:36;16.80;90.20
51863;DHT22;37900;52.996;6.278;2024-03-22T07:26:01;16.90;90.30
51863;DHT22;37900;52.996;6.278;2024-03-22T07:28:27;16.90;90.20
51863;DHT22;37900;52.996;6.278;2024-03-22T07:30:53;16.90;90.20
51863;DHT22;37900;52.996;6.278;2024-03-22T07:33:20;16.90;90.20
51863;DHT22;37900;52.996;6.278;2024-03-22T07:35:46;16.90;90.20
51863;DHT22;37900;52.996;6.278;2024-03-22T07:38:11;16.80;90.30
51863;DHT22;37900;52.996;6.278;2024-03-22T07:40:37;16.90;90.30
51863;DHT22;37900;52.996;6.278;2024-03-22T07:43:03;16.80;90.20
51863;DHT22;37900;52.996;6.278;2024-03-22T07:45:32;16.80;90.20
51863;DHT22;37900;52.996;6.278;2024-03-22T07:47:57;16.80;90.20
51863;DHT22;37900;52.996;6.278;2024-03-22T07:50:23;16.90;90.20
51863;DHT22;37900;52.996;6.278;2024-03-22T07:52:48;16.80;90.20
51863;DHT22;37900;52.996;6.278;2024-03-22T07:55:14;16.80;90.20
51863;DHT22;37900;52.996;6.278;2024-03-22T07:57:39;16.80;90.20
51863;DHT22;37900;52.996;6.278;2024-03-22T08:00:05;16.80;90.20
51863;DHT22;37900;52.996;6.278;2024-03-22T08:02:32;16.80;90.20
51863;DHT22;37900;52.996;6.278;2024-03-22T08:04:57;16.80;90.20
51863;DHT22;37900;52.996;6.278;2024-03-22T08:07:23;16.80;90.20
51863;DHT22;37900;52.996;6.278;2024-03-22T08:09:49;16.80;90.10
51863;DHT22;37900;52.996;6.278;2024-03-22T08:12:14;16.80;90.10
51863;DHT22;37900;52.996;6.278;2024-03-22T08:14:40;16.80;90.30
51863;DHT22;37900;52.996;6.278;2024-03-22T08:17:07;16.90;90.20
51863;DHT22;37900;52.996;6.278;2024-03-22T08:19:32;16.80;90.20
51863;DHT22;37900;52.996;6.278;2024-03-22T08:21:58;16.90;90.30
51863;DHT22;37900;52.996;6.278;2024-03-22T08:24:24;16.90;90.60
51863;DHT22;37900;52.996;6.278;2024-03-22T08:26:50;16.90;90.60
51863;DHT22;37900;52.996;6.278;2024-03-22T08:29:15;16.90;90.70
51863;DHT22;37900;52.996;6.278;2024-03-22T08:31:41;16.90;90.70
51863;DHT22;37900;52.996;6.278;2024-03-22T08:34:07;16.90;90.70
51863;DHT22;37900;52.996;6.278;2024-03-22T08:36:33;17.00;90.70
51863;DHT22;37900;52.996;6.278;2024-03-22T08:38:58;17.00;90.80
51863;DHT22;37900;52.996;6.278;2024-03-22T08:41:24;17.00;90.80
51863;DHT22;37900;52.996;6.278;2024-03-22T08:43:49;17.00;90.80
51863;DHT22;37900;52.996;6.278;2024-03-22T08:46:15;17.00;90.90
51863;DHT22;37900;52.996;6.278;2024-03-22T08:48:41;17.00;90.90
51863;DHT22;37900;52.996;6.278;2024-03-22T08:51:07;17.00;90.90
51863;DHT22;37900;52.996;6.278;2024-03-22T08:53:32;17.10;91.00
51863;DHT22;37900;52.996;6.278;2024-03-22T08:55:58;17.10;91.00
51863;DHT22;37900;52.996;6.278;2024-03-22T08:58:23;17.10;91.00
51863;DHT22;37900;52.996;6.278;2024-03-22T09:00:49;17.10;91.10
51863;DHT22;37900;52.996;6.278;2024-03-22T09:03:14;17.10;91.10
51863;DHT22;37900;52.996;6.278;2024-03-22T09:05:40;17.10;91.10
51863;DHT22;37900;52.996;6.278;2024-03-22T09:08:06;17.10;91.30
51863;DHT22;37900;52.996;6.278;2024-03-22T09:10:32;17.10;91.50
51863;DHT22;37900;52.996;6.278;2024-03-22T09:12:57;17.20;91.50
51863;DHT22;37900;52.996;6.278;2024-03-22T09:15:23;17.20;91.40
51863;DHT22;37900;52.996;6.278;2024-03-22T09:17:51;17.20;91.40
51863;DHT22;37900;52.996;6.278;2024-03-22T09:20:16;17.20;91.40
51863;DHT22;37900;52.996;6.278;2024-03-22T09:22:42;17.30;91.50
51863;DHT22;37900;52.996;6.278;2024-03-22T09:25:07;17.30;91.50
51863;DHT22;37900;52.996;6.278;2024-03-22T09:27:33;17.30;91.50
51863;DHT22;37900;52.996;6.278;2024-03-22T09:29:59;17.30;91.80
51863;DHT22;37900;52.996;6.278;2024-03-22T09:32:26;17.30;91.50
51863;DHT22;37900;52.996;6.278;2024-03-22T09:34:52;17.40;91.60
51863;DHT22;37900;52.996;6.278;2024-03-22T09:37:17;17.30;91.50
51863;DHT22;37900;52.996;6.278;2024-03-22T09:39:43;17.30;91.50
51863;DHT22;37900;52.996;6.278;2024-03-22T09:42:10;17.30;91.50
51863;DHT22;37900;52.996;6.278;2024-03-22T09:44:38;17.40;91.60
51863;DHT22;37900;52.996;6.278;2024-03-22T09:47:05;17.40;91.60
51863;DHT22;37900;52.996;6.278;2024-03-22T09:49:31;17.40;91.60
51863;DHT22;37900;52.996;6.278;2024-03-22T09:51:57;17.40;91.60
51863;DHT22;37900;52.996;6.278;2024-03-22T09:54:25;17.40;91.60
51863;DHT22;37900;52.996;6.278;2024-03-22T09:56:51;17.50;91.60
51863;DHT22;37900;52.996;6.278;2024-03-22T09:59:17;17.50;91.70
51863;DHT22;37900;52.996;6.278;2024-03-22T10:01:43;17.50;91.70
51863;DHT22;37900;52.996;6.278;2024-03-22T10:04:08;17.50;91.70
51863;DHT22;37900;52.996;6.278;2024-03-22T10:06:35;17.50;91.70
51863;DHT22;37900;52.996;6.278;2024-03-22T10:09:00;17.50;91.80
51863;DHT22;37900;52.996;6.278;2024-03-22T10:11:27;17.50;91.80
51863;DHT22;37900;52.996;6.278;2024-03-22T10:13:52;17.50;91.80
51863;DHT22;37900;52.996;6.278;2024-03-22T10:16:20;17.50;91.80
51863;DHT22;37900;52.996;6.278;2024-03-22T10:18:46;17.60;91.80
51863;DHT22;37900;52.996;6.278;2024-03-22T10:21:16;17.60;91.80
51863;DHT22;37900;52.996;6.278;2024-03-22T10:23:43;17.60;91.80
51863;DHT22;37900;52.996;6.278;2024-03-22T10:26:10;17.60;91.80
51863;DHT22;37900;52.996;6.278;2024-03-22T10:28:36;17.60;91.90
51863;DHT22;37900;52.996;6.278;2024-03-22T10:31:09;17.60;91.90
51863;DHT22;37900;52.996;6.278;2024-03-22T10:33:35;17.60;91.90
51863;DHT22;37900;52.996;6.278;2024-03-22T10:36:01;17.60;91.90
51863;DHT22;37900;52.996;6.278;2024-03-22T10:38:27;17.60;91.90
51863;DHT22;37900;52.996;6.278;2024-03-22T10:40:54;17.60;91.90
51863;DHT22;37900;52.996;6.278;2024-03-22T10:43:20;17.70;91.90
51863;DHT22;37900;52.996;6.278;2024-03-22T10:45:46;17.70;91.90
51863;DHT22;37900;52.996;6.278;2024-03-22T10:48:13;17.70;92.00
51863;DHT22;37900;52.996;6.278;2024-03-22T10:50:42;17.70;91.90
51863;DHT22;37900;52.996;6.278;2024-03-22T10:53:12;17.70;91.90
51863;DHT22;37900;52.996;6.278;2024-03-22T10:55:41;17.70;91.90
51863;DHT22;37900;52.996;6.278;2024-03-22T10:58:07;17.70;91.90
51863;DHT22;37900;52.996;6.278;2024-03-22T11:00:41;17.70;91.90
51863;DHT22;37900;52.996;6.278;2024-03-22T11:03:08;17.70;91.90
51863;DHT22;37900;52.996;6.278;2024-03-22T11:05:34;17.70;91.90
51863;DHT22;37900;52.996;6.278;2024-03-22T11:10:33;17.70;91.90
51863;DHT22;37900;52.996;6.278;2024-03-22T11:13:02;17.70;91.90
51863;DHT22;37900;52.996;6.278;2024-03-22T11:15:28;17.70;91.90
51863;DHT22;37900;52.996;6.278;2024-03-22T11:17:54;17.70;91.90
51863;DHT22;37900;52.996;6.278;2024-03-22T11:20:20;17.70;91.90
51863;DHT22;37900;52.996;6.278;2024-03-22T11:22:45;17.70;91.90
51863;DHT22;37900;52.996;6.278;2024-03-22T11:25:11;17.70;91.90
51863;DHT22;37900;52.996;6.278;2024-03-22T11:27:36;17.70;91.90
51863;DHT22;37900;52.996;6.278;2024-03-22T11:30:02;17.70;91.80
51863;DHT22;37900;52.996;6.278;2024-03-22T11:32:29;17.70;91.80
51863;DHT22;37900;52.996;6.278;2024-03-22T11:34:54;17.70;91.80
51863;DHT22;37900;52.996;6.278;2024-03-22T11:37:20;17.70;91.80
51863;DHT22;37900;52.996;6.278;2024-03-22T11:39:45;17.70;91.80
51863;DHT22;37900;52.996;6.278;2024-03-22T11:42:11;17.70;91.80
51863;DHT22;37900;52.996;6.278;2024-03-22T11:44:37;17.70;91.80
51863;DHT22;37900;52.996;6.278;2024-03-22T11:47:04;17.70;91.80
51863;DHT22;37900;52.996;6.278;2024-03-22T11:49:30;17.70;91.80
51863;DHT22;37900;52.996;6.278;2024-03-22T11:51:55;17.70;91.80
51863;DHT22;37900;52.996;6.278;2024-03-22T11:54:21;17.70;91.70
51863;DHT22;37900;52.996;6.278;2024-03-22T11:56:47;17.70;91.70
51863;DHT22;37900;52.996;6.278;2024-03-22T11:59:13;17.70;91.70
51863;DHT22;37900;52.996;6.278;2024-03-22T12:01:38;17.70;91.70
51863;DHT22;37900;52.996;6.278;2024-03-22T12:04:05;17.70;91.70
51863;DHT22;37900;52.996;6.278;2024-03-22T12:06:36;17.70;91.70
51863;DHT22;37900;52.996;6.278;2024-03-22T12:09:02;17.70;91.60
51863;DHT22;37900;52.996;6.278;2024-03-22T12:11:28;17.70;91.70
51863;DHT22;37900;52.996;6.278;2024-03-22T12:13:54;17.70;91.60
51863;DHT22;37900;52.996;6.278;2024-03-22T12:16:20;17.70;91.70
51863;DHT22;37900;52.996;6.278;2024-03-22T12:18:45;17.70;91.60
51863;DHT22;37900;52.996;6.278;2024-03-22T12:21:11;17.70;91.60
51863;DHT22;37900;52.996;6.278;2024-03-22T12:23:36;17.70;91.60
51863;DHT22;37900;52.996;6.278;2024-03-22T12:26:02;17.30;91.50
51863;DHT22;37900;52.996;6.278;2024-03-22T12:28:28;17.70;91.60
51863;DHT22;37900;52.996;6.278;2024-03-22T12:30:53;17.70;91.60
51863;DHT22;37900;52.996;6.278;2024-03-22T12:33:19;17.70;91.60
51863;DHT22;37900;52.996;6.278;2024-03-22T12:35:45;17.70;91.50
51863;DHT22;37900;52.996;6.278;2024-03-22T12:38:12;18.80;91.80
51863;DHT22;37900;52.996;6.278;2024-03-22T12:40:39;17.70;91.60
51863;DHT22;37900;52.996;6.278;2024-03-22T12:43:05;17.70;91.50
51863;DHT22;37900;52.996;6.278;2024-03-22T12:45:31;17.70;91.50
51863;DHT22;37900;52.996;6.278;2024-03-22T12:47:58;17.70;91.50
51863;DHT22;37900;52.996;6.278;2024-03-22T12:50:24;17.70;91.50
51863;DHT22;37900;52.996;6.278;2024-03-22T12:52:49;17.70;91.50
51863;DHT22;37900;52.996;6.278;2024-03-22T12:55:15;17.70;91.50
51863;DHT22;37900;52.996;6.278;2024-03-22T12:57:40;17.70;91.50
51863;DHT22;37900;52.996;6.278;2024-03-22T13:00:06;14.60;90.70
51863;DHT22;37900;52.996;6.278;2024-03-22T13:02:41;17.70;91.40
51863;DHT22;37900;52.996;6.278;2024-03-22T13:05:07;17.70;91.40
51863;DHT22;37900;52.996;6.278;2024-03-22T13:07:32;17.70;91.40
51863;DHT22;37900;52.996;6.278;2024-03-22T13:09:58;17.70;91.40
51863;DHT22;37900;52.996;6.278;2024-03-22T13:12:26;17.70;91.40
51863;DHT22;37900;52.996;6.278;2024-03-22T13:14:51;17.60;91.40
51863;DHT22;37900;52.996;6.278;2024-03-22T13:17:17;17.70;91.40
51863;DHT22;37900;52.996;6.278;2024-03-22T13:19:43;17.70;91.40
51863;DHT22;37900;52.996;6.278;2024-03-22T13:22:09;17.70;91.40
51863;DHT22;37900;52.996;6.278;2024-03-22T13:24:34;17.70;91.40
51863;DHT22;37900;52.996;6.278;2024-03-22T13:27:01;16.70;91.10
51863;DHT22;37900;52.996;6.278;2024-03-22T13:29:28;17.60;91.30
51863;DHT22;37900;52.996;6.278;2024-03-22T13:31:53;17.70;91.40
51863;DHT22;37900;52.996;6.278;2024-03-22T13:34:19;17.70;91.30
51863;DHT22;37900;52.996;6.278;2024-03-22T13:36:45;17.70;91.30
51863;DHT22;37900;52.996;6.278;2024-03-22T13:39:10;17.70;91.30
51863;DHT22;37900;52.996;6.278;2024-03-22T13:41:36;17.70;91.30
51863;DHT22;37900;52.996;6.278;2024-03-22T13:44:01;17.70;91.30
51863;DHT22;37900;52.996;6.278;2024-03-22T13:46:29;17.60;91.20
51863;DHT22;37900;52.996;6.278;2024-03-22T13:48:54;17.60;91.20
51863;DHT22;37900;52.996;6.278;2024-03-22T13:51:21;17.60;91.20
51863;DHT22;37900;52.996;6.278;2024-03-22T13:53:46;17.60;91.50
51863;DHT22;37900;52.996;6.278;2024-03-22T13:56:12;17.60;91.20
51863;DHT22;37900;52.996;6.278;2024-03-22T13:58:37;17.60;91.20
51863;DHT22;37900;52.996;6.278;2024-03-22T14:01:03;17.60;91.20
51863;DHT22;37900;52.996;6.278;2024-03-22T14:03:29;17.60;91.20
51863;DHT22;37900;52.996;6.278;2024-03-22T14:05:54;17.60;91.50
51863;DHT22;37900;52.996;6.278;2024-03-22T14:08:20;17.60;91.20
51863;DHT22;37900;52.996;6.278;2024-03-22T14:10:46;17.60;91.20
51863;DHT22;37900;52.996;6.278;2024-03-22T14:13:11;17.60;91.20
51863;DHT22;37900;52.996;6.278;2024-03-22T14:15:37;17.60;91.20
51863;DHT22;37900;52.996;6.278;2024-03-22T14:18:04;17.60;91.20
51863;DHT22;37900;52.996;6.278;2024-03-22T14:20:30;17.60;91.20
51863;DHT22;37900;52.996;6.278;2024-03-22T14:22:56;17.60;91.20
51863;DHT22;37900;52.996;6.278;2024-03-22T14:25:21;17.60;91.20
51863;DHT22;37900;52.996;6.278;2024-03-22T14:27:47;17.60;91.20
51863;DHT22;37900;52.996;6.278;2024-03-22T14:30:14;16.10;90.90
51863;DHT22;37900;52.996;6.278;2024-03-22T14:32:40;17.60;91.30
51863;DHT22;37900;52.996;6.278;2024-03-22T14:35:06;17.70;91.30
51863;DHT22;37900;52.996;6.278;2024-03-22T14:37:32;17.60;91.30
51863;DHT22;37900;52.996;6.278;2024-03-22T14:39:58;17.60;91.30
51863;DHT22;37900;52.996;6.278;2024-03-22T14:42:24;17.60;91.30
51863;DHT22;37900;52.996;6.278;2024-03-22T14:44:49;17.60;91.50
51863;DHT22;37900;52.996;6.278;2024-03-22T14:47:17;17.60;91.30
51863;DHT22;37900;52.996;6.278;2024-03-22T14:49:51;17.60;91.30
51863;DHT22;37900;52.996;6.278;2024-03-22T14:52:19;17.50;91.30
51863;DHT22;37900;52.996;6.278;2024-03-22T14:54:47;17.60;91.30
51863;DHT22;37900;52.996;6.278;2024-03-22T14:57:12;17.60;91.40
51863;DHT22;37900;52.996;6.278;2024-03-22T14:59:38;17.60;91.40
51863;DHT22;37900;52.996;6.278;2024-03-22T15:02:03;17.60;91.30
51863;DHT22;37900;52.996;6.278;2024-03-22T15:04:29;17.60;91.30
51863;DHT22;37900;52.996;6.278;2024-03-22T15:06:55;17.60;91.30
51863;DHT22;37900;52.996;6.278;2024-03-22T15:09:20;17.60;91.30
51863;DHT22;37900;52.996;6.278;2024-03-22T15:11:46;17.60;91.30
51863;DHT22;37900;52.996;6.278;2024-03-22T15:14:12;17.60;91.30
51863;DHT22;37900;52.996;6.278;2024-03-22T15:16:38;17.60;91.40
51863;DHT22;37900;52.996;6.278;2024-03-22T15:19:04;17.60;91.30
51863;DHT22;37900;52.996;6.278;2024-03-22T15:21:30;17.60;91.30
51863;DHT22;37900;52.996;6.278;2024-03-22T15:23:55;17.60;91.30